createdAt,value
2018-03-01T00:01:59.570Z,10.93
2018-03-01T00:04:26.643Z,9.43
2018-03-01T00:06:53.875Z,10.03
2018-03-01T00:09:21.001Z,8.87
2018-03-01T00:11:48.258Z,13.47
2018-03-01T00:14:15.355Z,17.37
2018-03-01T00:16:42.417Z,10.70
2018-03-01T00:21:48.064Z,18.90
2018-03-01T00:24:15.195Z,17.77
2018-03-01T00:26:42.820Z,16.90
2018-03-01T00:29:09.893Z,14.90
2018-03-01T00:31:37.027Z,14.70
2018-03-01T00:34:04.103Z,15.30
2018-03-01T00:36:31.176Z,13.33
2018-03-01T00:38:58.296Z,9.60
2018-03-01T00:41:25.366Z,12.57
2018-03-01T00:43:52.443Z,9.90
2018-03-01T00:46:19.663Z,16.83
2018-03-01T00:48:52.998Z,11.17
2018-03-01T00:51:20.125Z,7.23
2018-03-01T00:53:47.208Z,8.87
2018-03-01T00:56:14.304Z,11.07
2018-03-01T00:58:43.549Z,14.27
2018-03-01T01:01:10.589Z,7.83
2018-03-01T01:03:37.972Z,17.40
2018-03-01T01:06:05.075Z,15.73
2018-03-01T01:08:32.226Z,14.70
2018-03-01T01:10:59.290Z,11.10
2018-03-01T01:13:26.412Z,15.23
2018-03-01T01:15:53.469Z,12.80
2018-03-01T01:18:20.537Z,8.93
2018-03-01T01:20:47.645Z,14.10
2018-03-01T01:23:14.798Z,6.97
2018-03-01T01:25:42.204Z,10.87
2018-03-01T01:28:09.314Z,13.87
2018-03-01T01:30:36.372Z,7.23
2018-03-01T01:33:03.423Z,12.10
2018-03-01T01:35:30.545Z,13.80
2018-03-01T01:37:57.699Z,5.27
2018-03-01T01:40:24.847Z,10.77
2018-03-01T01:42:52.084Z,16.83
2018-03-01T01:47:57.708Z,16.48
2018-03-01T01:50:24.761Z,15.40
2018-03-01T01:52:51.824Z,10.33
2018-03-01T01:55:18.941Z,12.47
2018-03-01T01:57:46.008Z,10.33
2018-03-01T02:00:13.057Z,6.80
2018-03-01T02:02:40.164Z,5.97
2018-03-01T02:05:07.216Z,9.63
2018-03-01T02:07:34.272Z,8.23
2018-03-01T02:10:01.390Z,13.80
2018-03-01T02:12:28.455Z,14.20
2018-03-01T02:14:55.505Z,13.27
2018-03-01T02:17:22.624Z,12.47
2018-03-01T02:19:49.670Z,12.73
2018-03-01T02:24:54.907Z,17.75
2018-03-01T02:27:21.974Z,15.17
2018-03-01T02:29:49.032Z,14.30
2018-03-01T02:32:16.161Z,14.33
2018-03-01T02:34:43.312Z,8.20
2018-03-01T02:37:10.452Z,7.70
2018-03-01T02:39:41.096Z,13.97
2018-03-01T02:42:08.154Z,7.73
2018-03-01T02:44:35.235Z,9.10
2018-03-01T02:47:02.341Z,14.10
2018-03-01T02:49:29.394Z,11.80
2018-03-01T02:51:56.438Z,13.03
2018-03-01T02:54:23.573Z,8.70
2018-03-01T02:56:50.636Z,12.67
2018-03-01T02:59:17.685Z,12.77
2018-03-01T03:01:44.804Z,8.43
2018-03-01T03:04:12.313Z,12.97
2018-03-01T03:06:39.365Z,6.83
2018-03-01T03:09:06.476Z,11.10
2018-03-01T03:11:34.028Z,4.77
2018-03-01T03:14:01.703Z,7.17
2018-03-01T03:16:28.859Z,13.17
2018-03-01T03:18:55.926Z,10.87
2018-03-01T03:21:22.979Z,10.53
2018-03-01T03:23:50.107Z,9.93
2018-03-01T03:26:17.163Z,7.93
2018-03-01T03:28:44.216Z,6.60
2018-03-01T03:31:11.318Z,7.93
2018-03-01T03:33:38.372Z,10.40
2018-03-01T03:36:05.437Z,14.10
2018-03-01T03:38:32.553Z,14.17
2018-03-01T03:40:59.687Z,12.90
2018-03-01T03:43:26.836Z,10.90
2018-03-01T03:45:54.046Z,12.20
2018-03-01T03:51:00.156Z,8.35
2018-03-01T03:53:27.219Z,10.87
2018-03-01T03:55:54.278Z,13.77
2018-03-01T03:58:21.394Z,6.93
2018-03-01T04:00:48.453Z,9.37
2018-03-01T04:03:15.506Z,8.20
2018-03-01T04:05:42.632Z,10.20
2018-03-01T04:08:09.702Z,9.73
2018-03-01T04:10:36.836Z,8.67
2018-03-01T04:13:04.052Z,8.07
2018-03-01T04:15:31.100Z,6.23
2018-03-01T04:17:58.156Z,7.97
2018-03-01T04:20:25.270Z,9.77
2018-03-01T04:22:52.373Z,12.90
2018-03-01T04:25:19.390Z,9.57
2018-03-01T04:27:46.524Z,5.50
2018-03-01T04:30:13.591Z,5.53
2018-03-01T04:32:40.643Z,10.07
2018-03-01T04:35:07.743Z,7.57
2018-03-01T04:37:34.793Z,5.20
2018-03-01T04:40:01.845Z,10.10
2018-03-01T04:42:28.959Z,10.50
2018-03-01T04:44:56.011Z,7.87
2018-03-01T04:47:23.146Z,8.73
2018-03-01T04:49:52.268Z,5.53
2018-03-01T04:52:19.328Z,6.87
2018-03-01T04:54:46.382Z,12.40
2018-03-01T04:57:13.494Z,14.67
2018-03-01T04:59:40.595Z,12.70
2018-03-01T05:02:07.613Z,11.57
2018-03-01T05:04:34.719Z,13.47
2018-03-01T05:07:01.868Z,11.90
2018-03-01T05:09:29.008Z,11.50
2018-03-01T05:11:58.231Z,8.17
2018-03-01T05:14:25.282Z,9.93
2018-03-01T05:19:33.993Z,13.93
2018-03-01T05:22:01.044Z,15.07
2018-03-01T05:24:28.634Z,11.53
2018-03-01T05:26:55.740Z,14.83
2018-03-01T05:29:22.805Z,11.33
2018-03-01T05:31:49.875Z,9.80
2018-03-01T05:34:20.285Z,13.07
2018-03-01T05:36:47.340Z,13.43
2018-03-01T05:39:14.391Z,12.43
2018-03-01T05:41:41.514Z,11.87
2018-03-01T05:44:08.565Z,8.43
2018-03-01T05:46:35.618Z,14.00
2018-03-01T05:49:03.129Z,9.90
2018-03-01T05:51:30.195Z,9.90
2018-03-01T05:53:57.791Z,6.33
2018-03-01T05:56:24.897Z,7.77
2018-03-01T05:58:51.943Z,8.87
2018-03-01T06:01:18.981Z,5.93
2018-03-01T06:03:46.104Z,8.80
2018-03-01T06:06:13.166Z,7.47
2018-03-01T06:08:40.215Z,9.10
2018-03-01T06:11:07.334Z,14.57
2018-03-01T06:13:34.397Z,12.40
2018-03-01T06:16:01.460Z,14.77
2018-03-01T06:18:28.569Z,10.13
2018-03-01T06:20:55.627Z,15.47
2018-03-01T06:23:22.679Z,9.10
2018-03-01T06:25:49.787Z,9.00
2018-03-01T06:28:16.848Z,11.93
2018-03-01T06:30:43.893Z,7.70
2018-03-01T06:33:10.997Z,10.87
2018-03-01T06:35:38.054Z,12.43
2018-03-01T06:38:05.116Z,12.57
2018-03-01T06:40:32.336Z,5.80
2018-03-01T06:45:39.746Z,14.48
2018-03-01T06:48:06.845Z,14.23
2018-03-01T06:50:33.912Z,9.47
2018-03-01T06:53:01.037Z,10.40
2018-03-01T06:55:28.090Z,10.80
2018-03-01T06:57:57.594Z,9.07
2018-03-01T07:00:24.694Z,10.40
2018-03-01T07:02:51.804Z,9.30
2018-03-01T07:05:19.333Z,9.30
2018-03-01T07:07:46.444Z,9.40
2018-03-01T07:10:13.957Z,8.73
2018-03-01T07:12:41.016Z,8.30
2018-03-01T07:15:08.129Z,5.67
2018-03-01T07:17:35.211Z,6.33
2018-03-01T07:20:03.105Z,7.37
2018-03-01T07:22:30.228Z,7.33
2018-03-01T07:24:57.292Z,9.07
2018-03-01T07:27:24.355Z,10.03
2018-03-01T07:29:51.562Z,9.23
2018-03-01T07:32:18.627Z,7.20
2018-03-01T07:34:45.689Z,7.60
2018-03-01T07:37:12.813Z,8.33
2018-03-01T07:39:39.903Z,8.63
2018-03-01T07:42:07.474Z,9.37
2018-03-01T07:44:38.311Z,10.90
2018-03-01T07:47:05.387Z,10.90
2018-03-01T07:49:34.011Z,7.93
2018-03-01T07:52:01.136Z,8.23
2018-03-01T07:54:28.201Z,7.43
2018-03-01T07:56:55.274Z,6.97
2018-03-01T07:59:22.400Z,7.50
2018-03-01T08:01:49.473Z,7.63
2018-03-01T08:04:16.579Z,9.80
2018-03-01T08:06:43.660Z,6.93
2018-03-01T08:09:10.809Z,10.67
2018-03-01T08:14:16.488Z,11.02
2018-03-01T08:16:43.561Z,9.53
2018-03-01T08:19:10.617Z,9.07
2018-03-01T08:21:37.750Z,8.80
2018-03-01T08:24:04.817Z,9.70
2018-03-01T08:26:31.909Z,9.40
2018-03-01T08:28:59.101Z,8.97
2018-03-01T08:31:26.608Z,9.17
2018-03-01T08:33:53.670Z,7.93
2018-03-01T08:36:20.784Z,7.23
2018-03-01T08:38:47.844Z,8.33
2018-03-01T08:41:14.909Z,8.10
2018-03-01T08:43:42.022Z,7.73
2018-03-01T08:46:09.088Z,9.87
2018-03-01T08:48:36.232Z,9.57
2018-03-01T08:51:03.427Z,8.73
2018-03-01T08:53:30.491Z,6.37
2018-03-01T08:55:57.555Z,5.33
2018-03-01T08:58:24.676Z,5.63
2018-03-01T09:00:51.733Z,8.13
2018-03-01T09:03:18.798Z,10.43
2018-03-01T09:05:45.923Z,9.63
2018-03-01T09:08:13.002Z,10.27
2018-03-01T09:10:40.063Z,9.43
2018-03-01T09:13:07.168Z,9.70
2018-03-01T09:15:34.217Z,10.23
2018-03-01T09:18:01.277Z,11.13
2018-03-01T09:20:28.375Z,6.97
2018-03-01T09:22:55.424Z,5.87
2018-03-01T09:25:22.486Z,9.63
2018-03-01T09:27:49.591Z,8.30
2018-03-01T09:30:16.676Z,10.00
2018-03-01T09:35:22.267Z,12.45
2018-03-01T09:37:49.328Z,8.60
2018-03-01T09:40:16.392Z,8.33
2018-03-01T09:42:43.504Z,10.37
2018-03-01T09:45:11.246Z,10.93
2018-03-01T09:47:38.305Z,9.00
2018-03-01T09:50:05.411Z,10.57
2018-03-01T09:52:32.470Z,7.03
2018-03-01T09:54:59.983Z,10.20
2018-03-01T09:57:27.100Z,9.47
2018-03-01T09:59:54.154Z,12.17
2018-03-01T10:02:21.220Z,10.43
2018-03-01T10:04:48.329Z,11.50
2018-03-01T10:07:15.422Z,9.73
2018-03-01T10:09:42.694Z,11.63
2018-03-01T10:12:09.813Z,11.40
2018-03-01T10:14:36.878Z,8.87
2018-03-01T10:17:04.039Z,11.57
2018-03-01T10:19:31.141Z,7.77
2018-03-01T10:21:58.203Z,11.87
2018-03-01T10:24:25.285Z,10.67
2018-03-01T10:26:52.390Z,10.17
2018-03-01T10:29:19.446Z,10.73
2018-03-01T10:31:46.506Z,8.83
2018-03-01T10:34:13.612Z,7.50
2018-03-01T10:36:40.680Z,11.53
2018-03-01T10:39:07.737Z,11.43
2018-03-01T10:41:34.933Z,11.27
2018-03-01T10:44:02.026Z,11.37
2018-03-01T10:46:29.108Z,9.67
2018-03-01T10:48:56.196Z,11.90
2018-03-01T10:51:23.266Z,10.50
2018-03-01T10:53:50.341Z,11.23
2018-03-01T10:58:57.976Z,11.65
2018-03-01T11:01:25.097Z,11.50
2018-03-01T11:03:52.164Z,12.37
2018-03-01T11:06:19.232Z,11.53
2018-03-01T11:08:46.758Z,12.13
2018-03-01T11:11:13.891Z,10.70
2018-03-01T11:13:41.878Z,10.83
2018-03-01T11:16:08.984Z,9.30
2018-03-01T11:18:37.315Z,11.63
2018-03-01T11:21:04.387Z,11.10
2018-03-01T11:23:31.501Z,10.37
2018-03-01T11:25:58.570Z,11.90
2018-03-01T11:28:25.671Z,11.90
2018-03-01T11:30:52.787Z,12.23
2018-03-01T11:33:20.189Z,8.87
2018-03-01T11:35:47.244Z,10.87
2018-03-01T11:38:14.351Z,11.93
2018-03-01T11:40:41.440Z,11.30
2018-03-01T11:43:08.507Z,10.87
2018-03-01T11:45:35.636Z,11.03
2018-03-01T11:48:02.715Z,11.07
2018-03-01T11:50:29.765Z,9.30
2018-03-01T11:52:56.862Z,11.37
2018-03-01T11:55:23.941Z,6.33
2018-03-01T11:57:51.003Z,4.53
2018-03-01T12:00:18.113Z,7.00
2018-03-01T12:02:45.191Z,4.90
2018-03-01T12:05:12.238Z,4.73
2018-03-01T12:07:39.356Z,5.63
2018-03-01T12:10:06.399Z,4.87
2018-03-01T12:12:33.451Z,6.27
2018-03-01T12:15:00.577Z,4.37
2018-03-01T12:17:27.657Z,8.97
2018-03-01T12:22:33.261Z,6.00
2018-03-01T12:25:00.311Z,9.40
2018-03-01T12:27:27.458Z,5.67
2018-03-01T12:29:54.658Z,6.17
2018-03-01T12:32:21.709Z,4.93
2018-03-01T12:34:48.764Z,5.60
2018-03-01T12:37:15.880Z,5.23
2018-03-01T12:39:42.947Z,4.87
2018-03-01T12:42:09.997Z,5.40
2018-03-01T12:44:37.134Z,4.23
2018-03-01T12:47:04.198Z,5.10
2018-03-01T12:49:31.278Z,4.73
2018-03-01T12:51:58.384Z,4.90
2018-03-01T12:54:25.914Z,4.77
2018-03-01T12:56:52.991Z,3.93
2018-03-01T12:59:20.102Z,5.17
2018-03-01T13:01:47.147Z,5.30
2018-03-01T13:04:14.211Z,4.90
2018-03-01T13:06:41.320Z,4.53
2018-03-01T13:09:08.396Z,4.80
2018-03-01T13:11:35.445Z,4.37
2018-03-01T13:14:02.560Z,5.13
2018-03-01T13:16:29.628Z,4.37
2018-03-01T13:18:57.502Z,5.00
2018-03-01T13:21:24.628Z,4.00
2018-03-01T13:23:53.432Z,4.97
2018-03-01T13:26:20.579Z,4.57
2018-03-01T13:28:47.699Z,4.40
2018-03-01T13:31:14.769Z,4.03
2018-03-01T13:33:41.820Z,4.40
2018-03-01T13:36:08.940Z,4.03
2018-03-01T13:38:35.997Z,4.83
2018-03-01T13:41:03.153Z,5.30
2018-03-01T13:43:30.344Z,5.03
2018-03-01T13:48:35.958Z,5.40
2018-03-01T13:51:03.104Z,3.93
2018-03-01T13:53:30.244Z,3.70
2018-03-01T13:55:57.356Z,3.83
2018-03-01T13:58:24.421Z,3.67
2018-03-01T14:00:51.517Z,2.87
2018-03-01T14:03:18.629Z,3.03
2018-03-01T14:05:45.693Z,4.40
2018-03-01T14:08:12.841Z,2.77
2018-03-01T14:10:40.043Z,4.50
2018-03-01T14:13:07.106Z,2.60
2018-03-01T14:15:34.160Z,2.43
2018-03-01T14:18:01.259Z,2.47
2018-03-01T14:20:28.322Z,3.37
2018-03-01T14:22:55.384Z,3.30
2018-03-01T14:25:22.495Z,3.57
2018-03-01T14:27:51.691Z,3.60
2018-03-01T14:30:18.756Z,2.50
2018-03-01T14:32:45.859Z,2.77
2018-03-01T14:35:13.012Z,2.73
2018-03-01T14:37:40.144Z,3.03
2018-03-01T14:40:07.249Z,3.03
2018-03-01T14:42:34.312Z,2.97
2018-03-01T14:45:01.382Z,3.30
2018-03-01T14:47:28.506Z,3.30
2018-03-01T14:49:55.560Z,3.40
2018-03-01T14:52:22.626Z,3.33
2018-03-01T14:54:50.214Z,3.53
2018-03-01T14:57:17.299Z,2.67
2018-03-01T14:59:44.354Z,3.20
2018-03-01T15:02:11.454Z,3.27
2018-03-01T15:04:38.519Z,4.07
2018-03-01T15:07:05.580Z,2.83
2018-03-01T15:09:32.697Z,2.27
2018-03-01T15:14:43.909Z,4.43
2018-03-01T15:17:10.976Z,2.57
2018-03-01T15:19:38.019Z,3.43
2018-03-01T15:22:05.173Z,3.17
2018-03-01T15:24:32.216Z,3.03
2018-03-01T15:26:59.254Z,3.33
2018-03-01T15:29:26.355Z,3.57
2018-03-01T15:31:53.416Z,3.17
2018-03-01T15:34:20.479Z,2.70
2018-03-01T15:36:47.584Z,3.70
2018-03-01T15:39:14.640Z,3.70
2018-03-01T15:41:41.679Z,3.60
2018-03-01T15:44:08.886Z,3.03
2018-03-01T15:46:35.941Z,3.60
2018-03-01T15:49:03.014Z,3.27
2018-03-01T15:54:11.275Z,4.35
2018-03-01T15:56:38.727Z,4.20
2018-03-01T15:59:06.268Z,3.90
2018-03-01T16:01:33.323Z,3.70
2018-03-01T16:04:00.429Z,3.07
2018-03-01T16:06:28.037Z,2.87
2018-03-01T16:08:55.107Z,3.30
2018-03-01T16:11:22.214Z,3.27
2018-03-01T16:13:49.366Z,2.80
2018-03-01T16:16:16.557Z,3.53
2018-03-01T16:18:43.704Z,3.87
2018-03-01T16:21:10.791Z,3.70
2018-03-01T16:23:37.864Z,3.53
2018-03-01T16:26:05.247Z,3.63
2018-03-01T16:28:32.314Z,3.47
2018-03-01T16:30:59.387Z,3.10
2018-03-01T16:33:26.515Z,3.33
2018-03-01T16:35:53.563Z,3.70
2018-03-01T16:38:20.635Z,3.80
2018-03-01T16:40:47.752Z,2.70
2018-03-01T16:43:14.790Z,3.30
2018-03-01T16:45:41.841Z,3.53
2018-03-01T16:48:09.362Z,3.90
2018-03-01T16:50:36.410Z,3.50
2018-03-01T16:53:03.466Z,3.00
2018-03-01T16:58:09.145Z,3.53
2018-03-01T17:00:36.257Z,3.07
2018-03-01T17:03:03.339Z,2.90
2018-03-01T17:05:30.423Z,2.70
2018-03-01T17:07:57.498Z,3.47
2018-03-01T17:10:24.568Z,3.00
2018-03-01T17:12:51.619Z,3.47
2018-03-01T17:15:18.715Z,3.77
2018-03-01T17:17:45.832Z,3.43
2018-03-01T17:20:12.979Z,4.03
2018-03-01T17:22:40.045Z,3.80
2018-03-01T17:25:07.101Z,3.40
2018-03-01T17:27:34.735Z,4.10
2018-03-01T17:30:01.822Z,4.53
2018-03-01T17:32:28.900Z,3.80
2018-03-01T17:34:55.955Z,2.93
2018-03-01T17:37:23.079Z,2.97
2018-03-01T17:39:50.137Z,3.07
2018-03-01T17:42:17.193Z,3.07
2018-03-01T17:44:44.327Z,2.67
2018-03-01T17:47:11.397Z,3.80
2018-03-01T17:49:38.473Z,3.50
2018-03-01T17:52:05.582Z,4.33
2018-03-01T17:54:32.645Z,4.43
2018-03-01T17:56:59.721Z,2.67
2018-03-01T17:59:26.841Z,4.07
2018-03-01T18:01:53.903Z,3.03
2018-03-01T18:04:20.987Z,4.60
2018-03-01T18:06:48.140Z,2.77
2018-03-01T18:09:17.673Z,4.30
2018-03-01T18:11:44.764Z,3.50
2018-03-01T18:14:12.244Z,2.97
2018-03-01T18:16:39.338Z,3.97
2018-03-01T18:21:44.971Z,4.97
2018-03-01T18:24:12.188Z,4.40
2018-03-01T18:26:39.891Z,4.40
2018-03-01T18:29:07.987Z,3.57
2018-03-01T18:31:35.624Z,4.00
2018-03-01T18:34:03.166Z,3.90
2018-03-01T18:36:30.288Z,4.10
2018-03-01T18:38:57.369Z,14.40
2018-03-01T18:41:24.434Z,14.43
2018-03-01T18:43:51.566Z,9.27
2018-03-01T18:46:18.632Z,4.60
2018-03-01T18:48:45.722Z,19.53
2018-03-01T18:51:12.846Z,22.27
2018-03-01T18:53:39.924Z,22.20
2018-03-01T18:56:07.081Z,19.73
2018-03-01T18:58:34.202Z,20.73
2018-03-01T19:01:01.276Z,26.73
2018-03-01T19:03:28.376Z,27.60
2018-03-01T19:05:55.510Z,26.17
2018-03-01T19:08:22.565Z,27.13
2018-03-01T19:10:49.623Z,27.67
2018-03-01T19:13:16.739Z,28.73
2018-03-01T19:15:43.797Z,29.73
2018-03-01T19:18:10.854Z,27.07
2018-03-01T19:20:38.000Z,24.80
2018-03-01T19:23:05.047Z,29.13
2018-03-01T19:25:32.124Z,28.37
2018-03-01T19:27:59.235Z,28.30
2018-03-01T19:30:26.285Z,32.77
2018-03-01T19:32:53.363Z,28.27
2018-03-01T19:35:20.484Z,25.07
2018-03-01T19:37:47.560Z,27.77
2018-03-01T19:40:14.609Z,28.43
2018-03-01T19:42:41.714Z,27.10
2018-03-01T19:47:49.928Z,35.50
2018-03-01T19:50:17.474Z,32.47
2018-03-01T19:52:44.509Z,30.07
2018-03-01T19:55:11.619Z,31.33
2018-03-01T19:57:38.679Z,30.37
2018-03-01T20:00:05.767Z,33.27
2018-03-01T20:02:32.894Z,26.67
2018-03-01T20:04:59.979Z,30.13
2018-03-01T20:07:27.013Z,28.93
2018-03-01T20:09:54.132Z,24.83
2018-03-01T20:14:59.385Z,39.88
2018-03-01T20:17:26.448Z,31.23
2018-03-01T20:19:53.506Z,32.40
2018-03-01T20:22:20.660Z,32.87
2018-03-01T20:24:48.181Z,33.63
2018-03-01T20:27:15.247Z,36.53
2018-03-01T20:29:43.005Z,30.67
2018-03-01T20:32:12.213Z,30.40
2018-03-01T20:34:40.010Z,31.63
2018-03-01T20:37:06.566Z,29.57
2018-03-01T20:39:33.663Z,26.43
2018-03-01T20:42:00.773Z,31.00
2018-03-01T20:44:27.913Z,29.37
2018-03-01T20:46:55.344Z,31.50
2018-03-01T20:52:04.834Z,39.00
2018-03-01T20:54:31.963Z,33.27
2018-03-01T20:56:59.332Z,32.17
2018-03-01T20:59:26.466Z,29.17
2018-03-01T21:01:53.475Z,29.20
2018-03-01T21:04:20.555Z,29.00
2018-03-01T21:06:47.710Z,35.37
2018-03-01T21:09:15.236Z,31.10
2018-03-01T21:11:42.301Z,30.50
2018-03-01T21:14:09.432Z,32.13
2018-03-01T21:16:36.506Z,31.87
2018-03-01T21:19:03.655Z,29.57
2018-03-01T21:21:30.921Z,28.07
2018-03-01T21:23:58.066Z,35.57
2018-03-01T21:29:03.801Z,37.97
2018-03-01T21:31:30.893Z,35.33
2018-03-01T21:33:58.070Z,33.40
2018-03-01T21:36:25.188Z,32.23
2018-03-01T21:38:52.258Z,31.03
2018-03-01T21:41:19.375Z,29.73
2018-03-01T21:43:46.770Z,33.03
2018-03-01T21:46:14.739Z,33.27
2018-03-01T21:48:41.788Z,31.90
2018-03-01T21:51:08.899Z,32.87
2018-03-01T21:53:36.193Z,31.53
2018-03-01T21:56:03.230Z,36.13
2018-03-01T21:58:30.360Z,29.57
2018-03-01T22:00:57.438Z,32.00
2018-03-01T22:03:24.641Z,30.63
2018-03-01T22:05:52.052Z,31.90
2018-03-01T22:08:19.089Z,28.00
2018-03-01T22:10:46.161Z,31.70
2018-03-01T22:13:14.881Z,35.07
2018-03-01T22:15:40.870Z,32.47
2018-03-01T22:18:07.822Z,32.10
2018-03-01T22:20:36.009Z,33.03
2018-03-01T22:23:03.224Z,32.27
2018-03-01T22:25:30.217Z,32.43
2018-03-01T22:27:57.422Z,30.50
2018-03-01T22:30:24.801Z,29.67
2018-03-01T22:32:51.804Z,31.83
2018-03-01T22:35:19.202Z,34.43
2018-03-01T22:37:46.284Z,32.67
2018-03-01T22:40:13.351Z,34.00
2018-03-01T22:42:40.555Z,33.33
2018-03-01T22:45:07.702Z,31.73
2018-03-01T22:50:13.354Z,41.50
2018-03-01T22:52:40.505Z,35.13
2018-03-01T22:55:07.561Z,34.80
2018-03-01T22:57:37.040Z,32.70
2018-03-01T23:00:04.799Z,32.83
2018-03-01T23:02:32.220Z,33.23
2018-03-01T23:04:59.457Z,32.03
2018-03-01T23:07:26.520Z,30.20
2018-03-01T23:09:53.625Z,33.57
2018-03-01T23:12:21.186Z,36.03
2018-03-01T23:14:48.349Z,33.77
2018-03-01T23:17:16.597Z,34.63
2018-03-01T23:19:43.666Z,33.17
2018-03-01T23:22:10.705Z,31.80
2018-03-01T23:24:37.799Z,33.03
2018-03-01T23:27:04.894Z,29.60
2018-03-01T23:29:31.974Z,32.37
2018-03-01T23:31:59.019Z,33.90
2018-03-01T23:34:26.143Z,35.70
2018-03-01T23:36:53.195Z,33.47
2018-03-01T23:39:21.075Z,36.97
2018-03-01T23:41:48.184Z,33.90
2018-03-01T23:44:15.223Z,31.83
2018-03-01T23:46:42.390Z,34.77
2018-03-01T23:49:10.369Z,32.70
2018-03-01T23:51:37.433Z,31.23
2018-03-01T23:54:04.518Z,32.67
2018-03-01T23:56:34.428Z,33.20
2018-03-01T23:59:01.483Z,31.97
